首页
METAR-TAF:

METAR-TAF

机场 :

Ankeny Regional Airport

Ankeny, 艾奥瓦州, 美国

纬度: 41-41-24N, 经度: 093-33-57W, 海拔: 275米

当前天气观测

该预报发布于20分钟前的18:55 UTC
风速6节,风向东南
温度 9°C
湿度 93%
气压 1007 hPa
能見度: 4.8公里
少量云层高于1000英尺
散云层高于1300英尺
散云层高于1800英尺

METAR: KIKV 211855Z AUTO 13006KT 3SM RA FEW010 SCT013 SCT018 09/08 A2973 RMK AO2 P0022

时间: 14:15 (19:15 UTC)


TAF: 丢失

超过4000个机场的气象观测和天气预报(METAR&TAF报告)。

可查询的气象台以黄色和红色小点在地图上表示。

将鼠标移到小点上方,可查看气象台名称。

然后点击查看天气观测和预报。

如需切换地图:点击带黑十字的绿色按钮放大地图;点击带横线的绿色按钮缩小地图;或者点击绿色箭头查看邻近地区的地图。


METAR-TAF: